createdAt,value
2019-03-25T00:00:53.108Z,1011.60
2019-03-25T00:05:53.624Z,1011.46
2019-03-25T00:10:54.211Z,1011.45
2019-03-25T00:15:56.508Z,1011.33
2019-03-25T00:20:55.398Z,1011.19
2019-03-25T00:25:55.837Z,1011.16
2019-03-25T00:30:56.312Z,1011.04
2019-03-25T00:35:56.714Z,1011.02
2019-03-25T00:40:57.363Z,1010.99
2019-03-25T00:45:57.801Z,1010.93
2019-03-25T00:50:58.409Z,1010.83
2019-03-25T00:55:58.922Z,1010.74
2019-03-25T01:00:59.737Z,1010.67
2019-03-25T01:06:02.041Z,1010.74
2019-03-25T01:11:00.393Z,1010.71
2019-03-25T01:16:00.883Z,1010.55
2019-03-25T01:21:01.515Z,1010.53
2019-03-25T01:26:01.939Z,1010.52
2019-03-25T01:31:02.387Z,1010.42
2019-03-25T01:36:03.040Z,1010.41
2019-03-25T01:41:03.508Z,1010.35
2019-03-25T01:46:03.919Z,1010.22
2019-03-25T01:51:04.395Z,1010.18
2019-03-25T01:56:04.813Z,1010.07
2019-03-25T02:01:05.277Z,1010.02
2019-03-25T02:06:05.662Z,1009.99
2019-03-25T02:11:06.136Z,1009.94
2019-03-25T02:16:06.597Z,1009.98
2019-03-25T02:21:07.050Z,1009.90
2019-03-25T02:26:07.513Z,1009.71
2019-03-25T02:31:08.148Z,1009.69
2019-03-25T02:36:08.615Z,1009.63
2019-03-25T02:41:09.052Z,1009.58
2019-03-25T02:46:09.473Z,1009.56
2019-03-25T02:51:09.901Z,1009.50
2019-03-25T02:56:10.341Z,1009.52
2019-03-25T03:01:10.809Z,1009.45
2019-03-25T03:06:11.242Z,1009.39
2019-03-25T03:11:11.673Z,1009.35
2019-03-25T03:16:12.129Z,1009.39
2019-03-25T03:21:12.565Z,1009.24
2019-03-25T03:26:13.029Z,1009.21
2019-03-25T03:31:13.428Z,1009.11
2019-03-25T03:36:13.920Z,1009.10
2019-03-25T03:41:14.366Z,1008.98
2019-03-25T03:46:15.001Z,1008.92
2019-03-25T03:51:15.664Z,1009.01
2019-03-25T03:56:16.307Z,1008.88
2019-03-25T04:01:17.014Z,1008.94
2019-03-25T04:06:17.798Z,1008.72
2019-03-25T04:11:18.372Z,1008.78
2019-03-25T04:16:18.894Z,1008.63
2019-03-25T04:21:19.538Z,1008.64
2019-03-25T04:26:28.196Z,1008.79
2019-03-25T04:31:20.614Z,1008.77
2019-03-25T04:36:21.303Z,1008.81
2019-03-25T04:41:22.119Z,1008.89
2019-03-25T04:46:22.588Z,1008.71
2019-03-25T04:51:23.212Z,1008.72
2019-03-25T04:56:24.078Z,1008.83
2019-03-25T05:01:24.794Z,1008.70
2019-03-25T05:06:25.408Z,1008.72
2019-03-25T05:11:30.593Z,1008.96
2019-03-25T05:16:26.444Z,1008.89
2019-03-25T05:21:27.117Z,1008.85
2019-03-25T05:26:27.758Z,1008.90
2019-03-25T05:31:28.199Z,1008.99
2019-03-25T05:36:28.867Z,1009.06
2019-03-25T05:41:29.548Z,1009.08
2019-03-25T05:46:30.162Z,1009.15
2019-03-25T05:51:30.599Z,1009.15
2019-03-25T05:56:31.043Z,1009.18
2019-03-25T06:01:31.658Z,1009.21
2019-03-25T06:06:32.128Z,1009.28
2019-03-25T06:11:32.782Z,1009.23
2019-03-25T06:16:33.240Z,1009.32
2019-03-25T06:21:33.872Z,1009.27
2019-03-25T06:26:34.548Z,1009.31
2019-03-25T06:31:35.143Z,1009.41
2019-03-25T06:36:35.840Z,1009.48
2019-03-25T06:41:36.479Z,1009.51
2019-03-25T06:46:37.116Z,1009.64
2019-03-25T06:51:37.955Z,1009.73
2019-03-25T06:56:38.600Z,1009.69
2019-03-25T07:01:39.046Z,1009.77
2019-03-25T07:06:39.508Z,1009.84
2019-03-25T07:11:39.946Z,1009.91
2019-03-25T07:16:40.414Z,1009.83
2019-03-25T07:21:40.819Z,1009.90
2019-03-25T07:26:41.300Z,1009.86
2019-03-25T07:31:41.760Z,1009.86
2019-03-25T07:36:42.412Z,1009.84
2019-03-25T07:41:42.813Z,1009.89
2019-03-25T07:46:43.231Z,1009.86
2019-03-25T07:51:43.685Z,1009.86
2019-03-25T07:56:44.147Z,1009.88
2019-03-25T08:01:44.558Z,1009.78
2019-03-25T08:06:45.019Z,1009.87
2019-03-25T08:11:45.393Z,1009.85
2019-03-25T08:16:45.928Z,1010.04
2019-03-25T08:21:46.349Z,1010.11
2019-03-25T08:26:46.797Z,1010.10
2019-03-25T08:31:47.232Z,1010.08
2019-03-25T08:36:47.731Z,1010.08
2019-03-25T08:41:48.356Z,1010.03
2019-03-25T08:46:48.798Z,1009.92
2019-03-25T08:51:49.242Z,1009.86
2019-03-25T08:56:49.659Z,1009.93
2019-03-25T09:01:50.133Z,1010.03
2019-03-25T09:06:50.588Z,1010.08
2019-03-25T09:11:51.796Z,1010.17
2019-03-25T09:16:52.468Z,1010.32
2019-03-25T09:21:52.936Z,1010.30
2019-03-25T09:26:53.606Z,1010.17
2019-03-25T09:31:54.042Z,1010.29
2019-03-25T09:36:54.657Z,1010.32
2019-03-25T09:41:55.117Z,1010.64
2019-03-25T09:46:55.564Z,1010.55
2019-03-25T09:51:56.004Z,1010.63
2019-03-25T09:56:56.414Z,1010.59
2019-03-25T10:01:57.057Z,1010.62
2019-03-25T10:06:57.724Z,1010.61
2019-03-25T10:11:58.157Z,1010.60
2019-03-25T10:16:58.631Z,1010.61
2019-03-25T10:21:59.054Z,1010.58
2019-03-25T10:26:59.503Z,1010.55
2019-03-25T10:32:00.162Z,1010.53
2019-03-25T10:37:00.793Z,1010.46
2019-03-25T10:42:01.479Z,1010.44
2019-03-25T10:47:01.909Z,1011.25
2019-03-25T10:52:02.285Z,1011.14
2019-03-25T10:57:02.807Z,1011.16
2019-03-25T11:02:03.224Z,1011.05
2019-03-25T11:07:03.853Z,1010.96
2019-03-25T11:12:04.546Z,1010.83
2019-03-25T11:17:04.975Z,1010.84
2019-03-25T11:22:05.393Z,1010.84
2019-03-25T11:27:05.865Z,1010.76
2019-03-25T11:32:06.527Z,1010.89
2019-03-25T11:37:06.943Z,1011.03
2019-03-25T11:42:07.377Z,1011.05
2019-03-25T11:47:07.850Z,1010.97
2019-03-25T11:52:08.306Z,1010.93
2019-03-25T11:57:08.904Z,1011.00
2019-03-25T12:02:17.295Z,1011.01
2019-03-25T12:07:09.815Z,1011.13
2019-03-25T12:12:10.264Z,1011.35
2019-03-25T12:17:10.678Z,1011.61
2019-03-25T12:22:12.806Z,1011.45
2019-03-25T12:27:11.574Z,1011.32
2019-03-25T12:32:12.037Z,1011.24
2019-03-25T12:37:12.483Z,1011.18
2019-03-25T12:42:12.923Z,1011.09
2019-03-25T12:47:13.376Z,1011.19
2019-03-25T12:52:13.817Z,1010.95
2019-03-25T12:57:14.252Z,1010.92
2019-03-25T13:02:14.678Z,1011.03
2019-03-25T13:07:15.152Z,1011.14
2019-03-25T13:12:15.557Z,1011.53
2019-03-25T13:17:16.240Z,1011.31
2019-03-25T13:22:16.674Z,1011.32
2019-03-25T13:27:17.133Z,1011.57
2019-03-25T13:32:17.606Z,1011.38
2019-03-25T13:37:18.009Z,1011.35
2019-03-25T13:42:18.465Z,1011.27
2019-03-25T13:47:18.916Z,1011.25
2019-03-25T13:52:19.324Z,1011.15
2019-03-25T13:57:20.097Z,1011.23
2019-03-25T14:02:20.529Z,1011.17
2019-03-25T14:07:20.957Z,1011.14
2019-03-25T14:12:21.606Z,1011.02
2019-03-25T14:17:22.081Z,1011.04
2019-03-25T14:22:22.655Z,1010.94
2019-03-25T14:27:23.273Z,1010.97
2019-03-25T14:32:24.044Z,1010.85
2019-03-25T14:37:24.551Z,1010.92
2019-03-25T14:42:25.014Z,1010.94
2019-03-25T14:47:25.644Z,1011.03
2019-03-25T14:52:26.109Z,1011.16
2019-03-25T14:57:26.535Z,1011.12
2019-03-25T15:02:27.194Z,1011.10
2019-03-25T15:07:27.649Z,1010.95
2019-03-25T15:12:28.293Z,1011.03
2019-03-25T15:17:28.902Z,1011.01
2019-03-25T15:22:29.584Z,1011.31
2019-03-25T15:27:30.011Z,1011.71
2019-03-25T15:32:30.663Z,1011.79
2019-03-25T15:37:31.333Z,1011.91
2019-03-25T15:42:31.775Z,1011.81
2019-03-25T15:47:32.432Z,1011.85
2019-03-25T15:52:33.222Z,1011.88
2019-03-25T15:57:33.923Z,1011.87
2019-03-25T16:02:34.545Z,1012.00
2019-03-25T16:07:35.217Z,1011.96
2019-03-25T16:12:38.724Z,1011.93
2019-03-25T16:17:37.094Z,1011.96
2019-03-25T16:22:37.557Z,1012.18
2019-03-25T16:27:37.983Z,1012.17
2019-03-25T16:32:38.430Z,1012.27
2019-03-25T16:37:38.766Z,1012.49
2019-03-25T16:42:40.259Z,1012.65
2019-03-25T16:47:40.985Z,1012.61
2019-03-25T16:52:41.467Z,1012.62
2019-03-25T16:57:41.903Z,1012.74
2019-03-25T17:02:42.339Z,1013.06
2019-03-25T17:07:42.979Z,1013.05
2019-03-25T17:12:44.854Z,1013.02
2019-03-25T17:17:45.517Z,1013.00
2019-03-25T17:22:45.978Z,1013.08
2019-03-25T17:27:46.434Z,1013.13
2019-03-25T17:32:47.014Z,1013.20
2019-03-25T17:37:47.717Z,1013.30
2019-03-25T17:42:49.994Z,1013.35
2019-03-25T17:47:48.605Z,1013.49
2019-03-25T17:52:49.043Z,1013.54
2019-03-25T17:57:49.474Z,1013.67
2019-03-25T18:02:49.947Z,1013.84
2019-03-25T18:07:50.344Z,1013.86
2019-03-25T18:12:50.812Z,1014.05
2019-03-25T18:17:51.230Z,1014.10
2019-03-25T18:22:51.689Z,1014.21
2019-03-25T18:27:52.156Z,1014.31
2019-03-25T18:32:52.579Z,1014.51
2019-03-25T18:37:53.032Z,1014.55
2019-03-25T18:42:53.483Z,1014.71
2019-03-25T18:47:54.082Z,1014.77
2019-03-25T18:52:56.776Z,1014.82
2019-03-25T18:57:55.625Z,1014.91
2019-03-25T19:02:55.981Z,1014.95
2019-03-25T19:07:56.559Z,1015.05
2019-03-25T19:12:57.168Z,1015.19
2019-03-25T19:17:58.803Z,1015.22
2019-03-25T19:22:59.745Z,1015.36
2019-03-25T19:28:00.507Z,1015.44
2019-03-25T19:33:01.172Z,1015.43
2019-03-25T19:38:02.059Z,1015.51
2019-03-25T19:43:02.695Z,1015.53
2019-03-25T19:48:03.167Z,1015.59
2019-03-25T19:53:03.771Z,1015.69
2019-03-25T19:58:04.274Z,1015.85
2019-03-25T20:03:04.856Z,1015.97
2019-03-25T20:08:05.307Z,1016.03
2019-03-25T20:13:05.769Z,1016.19
2019-03-25T20:18:06.211Z,1016.19
2019-03-25T20:23:06.717Z,1016.33
2019-03-25T20:28:07.171Z,1016.30
2019-03-25T20:33:07.799Z,1016.41
2019-03-25T20:38:08.262Z,1016.54
2019-03-25T20:43:08.836Z,1016.62
2019-03-25T20:48:09.477Z,1016.69
2019-03-25T20:53:10.100Z,1016.76
2019-03-25T20:58:10.719Z,1016.89
2019-03-25T21:03:11.504Z,1016.86
2019-03-25T21:08:12.148Z,1016.93
2019-03-25T21:13:13.273Z,1017.01
2019-03-25T21:18:14.042Z,1017.11
2019-03-25T21:23:14.878Z,1017.05
2019-03-25T21:28:15.668Z,1017.14
2019-03-25T21:33:16.704Z,1017.26
2019-03-25T21:38:17.405Z,1017.38
2019-03-25T21:43:17.900Z,1017.46
2019-03-25T21:48:18.534Z,1017.46
2019-03-25T21:53:19.129Z,1017.49
2019-03-25T21:58:19.586Z,1017.58
2019-03-25T22:03:20.008Z,1017.66
2019-03-25T22:08:20.473Z,1017.70
2019-03-25T22:13:20.920Z,1017.72
2019-03-25T22:18:21.551Z,1017.69
2019-03-25T22:23:22.036Z,1017.62
2019-03-25T22:28:22.486Z,1017.63
2019-03-25T22:33:25.981Z,1017.71
2019-03-25T22:38:24.980Z,1017.69
2019-03-25T22:43:25.421Z,1017.71
2019-03-25T22:48:26.077Z,1017.68
2019-03-25T22:53:26.689Z,1017.72
2019-03-25T22:58:27.152Z,1017.69
2019-03-25T23:03:38.607Z,1017.80
2019-03-25T23:08:28.014Z,1017.93
2019-03-25T23:13:28.514Z,1018.02
2019-03-25T23:18:28.959Z,1017.98
2019-03-25T23:23:29.367Z,1017.95
2019-03-25T23:28:29.786Z,1018.05
2019-03-25T23:33:30.234Z,1018.00
2019-03-25T23:38:30.704Z,1017.96
2019-03-25T23:43:31.167Z,1018.07
2019-03-25T23:48:31.599Z,1018.11
2019-03-25T23:53:32.049Z,1018.11
2019-03-25T23:58:32.508Z,1018.08
